Disclaimer

Please do not use the information listed here in-flight or in-navigation, as they are not provided to us by the airports but are provided by volunteers, so they might be outdated.

Search


Regions


Airport information page

No radio frequency information is available.

Airport informations:
Latitude: 11° 01' 48.11" N
Longitude: 077° 02' 36.18" E
Elevation: 1324 feet - 404 meters
Operating hours: N/A
Operating agency: Civil government, landing fees and diplomatic clearance may be required
Timezone: UTC+5:30
Fuel: Jet A1, without icing nhibitor.

Runway information:
05/23 - 8480 x 150 feet< - >2585 x 46 meters

Recent METARs:
VOCB 210100Z 00000KT 3000 BR FEW015 23/21 Q1015 NOSIG
VOCB 210200Z 00000KT 3000 BR FEW015 24/21 Q1016 NOSIG
VOCB 210230Z 00000KT 3000 BR FEW015 25/21 Q1016 NOSIG

Airport on the map: